createdAt,value
2023-02-02T00:00:09.739Z,3.4
2023-02-02T00:01:25.061Z,3.4
2023-02-02T00:02:41.341Z,3.4
2023-02-02T00:03:57.631Z,3.4
2023-02-02T00:05:13.933Z,3.5
2023-02-02T00:06:30.222Z,3.4
2023-02-02T00:07:46.526Z,3.4
2023-02-02T00:09:02.827Z,3.4
2023-02-02T00:10:19.103Z,3.4
2023-02-02T00:11:35.407Z,3.4
2023-02-02T00:12:51.712Z,3.4
2023-02-02T00:14:07.984Z,3.4
2023-02-02T00:15:24.308Z,3.5
2023-02-02T00:16:40.603Z,3.5
2023-02-02T00:17:55.893Z,3.5
2023-02-02T00:19:12.199Z,3.5
2023-02-02T00:20:28.498Z,3.6
2023-02-02T00:21:44.787Z,3.5
2023-02-02T00:23:01.091Z,3.5
2023-02-02T00:24:17.387Z,3.6
2023-02-02T00:25:33.674Z,3.6
2023-02-02T00:26:49.954Z,3.6
2023-02-02T00:28:06.270Z,3.6
2023-02-02T00:29:22.570Z,3.7
2023-02-02T00:30:38.858Z,3.6
2023-02-02T00:31:55.140Z,3.6
2023-02-02T00:33:11.429Z,3.7
2023-02-02T00:34:26.755Z,3.7
2023-02-02T00:35:43.033Z,3.7
2023-02-02T00:36:59.338Z,3.7
2023-02-02T00:38:15.619Z,3.7
2023-02-02T00:39:31.943Z,3.7
2023-02-02T00:40:48.204Z,3.7
2023-02-02T00:42:04.502Z,3.6
2023-02-02T00:43:20.797Z,3.7
2023-02-02T00:44:37.091Z,3.7
2023-02-02T00:45:53.396Z,3.7
2023-02-02T00:47:09.698Z,3.7
2023-02-02T00:48:25.991Z,3.7
2023-02-02T00:49:42.272Z,3.7
2023-02-02T00:50:57.598Z,3.7
2023-02-02T00:52:13.886Z,3.7
2023-02-02T00:53:30.186Z,3.7
2023-02-02T00:54:46.498Z,3.7
2023-02-02T00:56:02.754Z,3.7
2023-02-02T00:57:19.080Z,3.7
2023-02-02T00:58:35.356Z,3.7
2023-02-02T00:59:51.644Z,3.7
2023-02-02T01:01:07.957Z,3.8
2023-02-02T01:02:24.245Z,3.8
2023-02-02T01:03:40.538Z,3.7
2023-02-02T01:04:56.822Z,3.7
2023-02-02T01:06:13.117Z,3.8
2023-02-02T01:07:28.424Z,3.8
2023-02-02T01:08:44.732Z,3.7
2023-02-02T01:10:01.015Z,3.7
2023-02-02T01:11:17.323Z,3.7
2023-02-02T01:12:33.615Z,3.7
2023-02-02T01:13:49.904Z,3.7
2023-02-02T01:15:06.212Z,3.7
2023-02-02T01:16:22.507Z,3.6
2023-02-02T01:17:38.797Z,3.6
2023-02-02T01:18:55.075Z,3.7
2023-02-02T01:20:11.390Z,3.7
2023-02-02T01:21:27.678Z,3.6
2023-02-02T01:22:43.961Z,3.6
2023-02-02T01:23:59.000Z,3.6
2023-02-02T01:25:15.568Z,3.6
2023-02-02T01:26:31.892Z,3.6
2023-02-02T01:27:48.152Z,3.6
2023-02-02T01:29:04.471Z,3.6
2023-02-02T01:30:20.758Z,3.6
2023-02-02T01:31:37.040Z,3.6
2023-02-02T01:32:53.327Z,3.6
2023-02-02T01:34:09.623Z,3.6
2023-02-02T01:35:25.935Z,3.6
2023-02-02T01:36:42.232Z,3.6
2023-02-02T01:37:58.514Z,3.6
2023-02-02T01:39:14.812Z,3.6
2023-02-02T01:40:30.126Z,3.6
2023-02-02T01:41:46.440Z,3.6
2023-02-02T01:43:02.705Z,3.6
2023-02-02T01:44:19.017Z,3.6
2023-02-02T01:45:35.312Z,3.6
2023-02-02T01:46:51.613Z,3.6
2023-02-02T01:48:06.908Z,3.6
2023-02-02T01:49:23.198Z,3.6
2023-02-02T01:50:39.501Z,3.6
2023-02-02T01:51:55.782Z,3.6
2023-02-02T01:53:12.101Z,3.6
2023-02-02T01:54:28.391Z,3.6
2023-02-02T01:55:44.681Z,3.6
2023-02-02T01:57:00.989Z,3.6
2023-02-02T01:58:17.270Z,3.6
2023-02-02T01:59:33.584Z,3.6
2023-02-02T02:00:49.843Z,3.6
2023-02-02T02:02:06.148Z,3.7
2023-02-02T02:03:22.453Z,3.7
2023-02-02T02:04:37.744Z,3.7
2023-02-02T02:05:54.053Z,3.7
2023-02-02T02:07:10.350Z,3.6
2023-02-02T02:08:26.000Z,3.6
2023-02-02T02:09:42.948Z,3.6
2023-02-02T02:10:59.230Z,3.6
2023-02-02T02:12:15.538Z,3.6
2023-02-02T02:13:31.822Z,3.6
2023-02-02T02:14:48.116Z,3.6
2023-02-02T02:16:04.405Z,3.7
2023-02-02T02:17:20.693Z,3.6
2023-02-02T02:18:36.985Z,3.6
2023-02-02T02:19:53.277Z,3.7
2023-02-02T02:21:08.587Z,3.7
2023-02-02T02:22:24.890Z,3.7
2023-02-02T02:23:41.198Z,3.7
2023-02-02T02:24:57.484Z,3.7
2023-02-02T02:26:13.777Z,3.7
2023-02-02T02:27:30.068Z,3.7
2023-02-02T02:28:46.386Z,3.7
2023-02-02T02:30:02.652Z,3.7
2023-02-02T02:31:18.942Z,3.7
2023-02-02T02:32:35.257Z,3.7
2023-02-02T02:33:51.531Z,3.7
2023-02-02T02:35:07.848Z,3.7
2023-02-02T02:36:24.129Z,3.7
2023-02-02T02:37:39.456Z,3.7
2023-02-02T02:38:55.747Z,3.7
2023-02-02T02:40:12.031Z,3.7
2023-02-02T02:41:28.321Z,3.8
2023-02-02T02:42:44.613Z,3.8
2023-02-02T02:44:00.917Z,3.7
2023-02-02T02:45:17.219Z,3.7
2023-02-02T02:46:33.519Z,3.7
2023-02-02T02:47:49.794Z,3.8
2023-02-02T02:49:06.083Z,3.8
2023-02-02T02:50:22.376Z,3.8
2023-02-02T02:51:38.683Z,3.8
2023-02-02T02:52:54.976Z,3.8
2023-02-02T02:54:10.295Z,3.8
2023-02-02T02:55:26.569Z,3.8
2023-02-02T02:56:42.882Z,3.9
2023-02-02T02:57:59.164Z,3.9
2023-02-02T02:59:15.470Z,3.9
2023-02-02T03:00:31.746Z,3.9
2023-02-02T03:01:48.074Z,4
2023-02-02T03:03:04.341Z,3.9
2023-02-02T03:04:20.634Z,3.9
2023-02-02T03:05:36.947Z,4
2023-02-02T03:06:53.221Z,3.9
2023-02-02T03:08:09.514Z,3.9
2023-02-02T03:09:25.812Z,3.9
2023-02-02T03:10:41.119Z,3.9
2023-02-02T03:11:57.412Z,3.9
2023-02-02T03:13:13.709Z,4
2023-02-02T03:14:30.020Z,4
2023-02-02T03:15:46.297Z,4
2023-02-02T03:17:02.616Z,4
2023-02-02T03:18:18.916Z,4
2023-02-02T03:19:35.202Z,4
2023-02-02T03:20:51.493Z,4
2023-02-02T03:22:07.787Z,4
2023-02-02T03:23:24.066Z,4.1
2023-02-02T03:24:40.362Z,4
2023-02-02T03:25:56.657Z,4
2023-02-02T03:27:11.981Z,4
2023-02-02T03:28:28.260Z,4
2023-02-02T03:29:44.581Z,4
2023-02-02T03:31:00.852Z,4
2023-02-02T03:32:17.139Z,4
2023-02-02T03:33:33.448Z,4
2023-02-02T03:34:49.754Z,4
2023-02-02T03:36:06.044Z,4
2023-02-02T03:37:22.334Z,4
2023-02-02T03:38:38.635Z,4
2023-02-02T03:39:54.917Z,4
2023-02-02T03:41:11.232Z,4.1
2023-02-02T03:42:27.511Z,4.1
2023-02-02T03:43:42.814Z,4.1
2023-02-02T03:44:59.113Z,4.1
2023-02-02T03:46:15.401Z,4.1
2023-02-02T03:47:31.708Z,4.1
2023-02-02T03:48:48.015Z,4.1
2023-02-02T03:50:04.295Z,4.1
2023-02-02T03:51:20.585Z,4.1
2023-02-02T03:52:36.886Z,4.1
2023-02-02T03:53:53.180Z,4.2
2023-02-02T03:55:09.477Z,4.2
2023-02-02T03:56:25.755Z,4.1
2023-02-02T03:57:42.062Z,4.1
2023-02-02T03:58:58.355Z,4.2
2023-02-02T04:00:13.667Z,4.2
2023-02-02T04:01:29.958Z,4.2
2023-02-02T04:02:46.255Z,4.3
2023-02-02T04:04:02.537Z,4.3
2023-02-02T04:05:18.835Z,4.2
2023-02-02T04:06:35.136Z,4.3
2023-02-02T04:09:07.716Z,4.3
2023-02-02T04:10:24.020Z,4.3
2023-02-02T04:11:40.301Z,4.3
2023-02-02T04:12:56.604Z,4.3
2023-02-02T04:14:12.889Z,4.3
2023-02-02T04:15:29.197Z,4.3
2023-02-02T04:16:44.503Z,4.2
2023-02-02T04:18:00.795Z,4.2
2023-02-02T04:19:17.099Z,4.2
2023-02-02T04:20:33.399Z,4.2
2023-02-02T04:21:49.688Z,4.2
2023-02-02T04:23:05.967Z,4.2
2023-02-02T04:24:22.278Z,4.2
2023-02-02T04:25:38.577Z,4.2
2023-02-02T04:26:54.855Z,4.2
2023-02-02T04:28:11.145Z,4.2
2023-02-02T04:29:27.440Z,4.2
2023-02-02T04:30:43.752Z,4.2
2023-02-02T04:32:00.038Z,4.2
2023-02-02T04:33:15.348Z,4.2
2023-02-02T04:34:31.634Z,4.2
2023-02-02T04:35:47.948Z,4.2
2023-02-02T04:37:04.232Z,4.2
2023-02-02T04:38:20.515Z,4.2
2023-02-02T04:39:36.830Z,4.2
2023-02-02T04:40:53.134Z,4.2
2023-02-02T04:42:09.423Z,4.2
2023-02-02T04:43:25.703Z,4.2
2023-02-02T04:44:42.012Z,4.2
2023-02-02T04:45:58.302Z,4.1
2023-02-02T04:47:14.580Z,4.1
2023-02-02T04:48:30.895Z,4.1
2023-02-02T04:49:46.204Z,4.1
2023-02-02T04:51:02.485Z,4.1
2023-02-02T04:52:18.792Z,4.2
2023-02-02T04:53:35.087Z,4.1
2023-02-02T04:54:51.375Z,4.2
2023-02-02T04:56:07.656Z,4.2
2023-02-02T04:57:23.956Z,4.1
2023-02-02T04:58:40.252Z,4.1
2023-02-02T04:59:56.535Z,4.2
2023-02-02T05:01:12.839Z,4.2
2023-02-02T05:02:29.129Z,4.1
2023-02-02T05:03:45.436Z,4.1
2023-02-02T05:05:01.721Z,4.1
2023-02-02T05:06:17.046Z,4.1
2023-02-02T05:07:33.345Z,4.1
2023-02-02T05:08:49.627Z,4.1
2023-02-02T05:10:05.924Z,4.1
2023-02-02T05:11:22.223Z,4.1
2023-02-02T05:12:38.524Z,4.1
2023-02-02T05:13:54.789Z,4.1
2023-02-02T05:15:11.087Z,4
2023-02-02T05:16:27.395Z,4.1
2023-02-02T05:17:43.685Z,4.1
2023-02-02T05:18:59.973Z,4.1
2023-02-02T05:20:16.270Z,4.1
2023-02-02T05:21:32.581Z,4.1
2023-02-02T05:22:47.896Z,4.1
2023-02-02T05:24:04.178Z,4.1
2023-02-02T05:25:20.462Z,4.1
2023-02-02T05:26:36.752Z,4.1
2023-02-02T05:27:53.055Z,4.1
2023-02-02T05:29:09.340Z,4.1
2023-02-02T05:30:25.635Z,4.1
2023-02-02T05:31:41.945Z,4.1
2023-02-02T05:32:58.229Z,4.1
2023-02-02T05:34:14.525Z,4.1
2023-02-02T05:35:30.815Z,4.1
2023-02-02T05:36:47.106Z,4.1
2023-02-02T05:38:03.400Z,4.1
2023-02-02T05:39:18.733Z,4.1
2023-02-02T05:40:35.005Z,4.1
2023-02-02T05:41:51.301Z,4.1
2023-02-02T05:43:07.594Z,4.1
2023-02-02T05:44:23.915Z,4.1
2023-02-02T05:45:40.205Z,4.1
2023-02-02T05:48:12.774Z,4.1
2023-02-02T05:49:29.075Z,4.1
2023-02-02T05:50:45.367Z,4.1
2023-02-02T05:52:01.657Z,4.1
2023-02-02T05:53:17.965Z,4.2
2023-02-02T05:54:34.243Z,4.2
2023-02-02T05:55:49.586Z,4.2
2023-02-02T05:57:05.847Z,4.2
2023-02-02T05:58:22.166Z,4.2
2023-02-02T05:59:38.442Z,4.2
2023-02-02T06:00:54.738Z,4.2
2023-02-02T06:02:11.040Z,4.2
2023-02-02T06:03:26.362Z,4.2
2023-02-02T06:04:42.636Z,4.2
2023-02-02T06:05:58.934Z,4.2
2023-02-02T06:07:15.246Z,4.2
2023-02-02T06:08:31.524Z,4.2
2023-02-02T06:09:47.832Z,4.2
2023-02-02T06:11:04.119Z,4.2
2023-02-02T06:12:20.437Z,4.2
2023-02-02T06:13:36.698Z,4.2
2023-02-02T06:14:53.008Z,4.2
2023-02-02T06:16:09.298Z,4.2
2023-02-02T06:17:25.597Z,4.2
2023-02-02T06:18:41.819Z,4.3
2023-02-02T06:19:57.146Z,4.3
2023-02-02T06:21:13.401Z,4.3
2023-02-02T06:22:29.624Z,4.2
2023-02-02T06:23:45.920Z,4.3
2023-02-02T06:25:02.222Z,4.3
2023-02-02T06:26:18.480Z,4.2
2023-02-02T06:27:34.736Z,4.2
2023-02-02T06:28:50.975Z,4.3
2023-02-02T06:30:07.208Z,4.2
2023-02-02T06:31:23.469Z,4.2
2023-02-02T06:32:39.701Z,4.2
2023-02-02T06:33:55.930Z,4.2
2023-02-02T06:35:12.175Z,4.3
2023-02-02T06:36:27.430Z,4.2
2023-02-02T06:37:43.693Z,4.3
2023-02-02T06:38:59.913Z,4.2
2023-02-02T06:40:16.148Z,4.3
2023-02-02T06:41:32.388Z,4.2
2023-02-02T06:42:48.628Z,4.3
2023-02-02T06:44:04.872Z,4.3
2023-02-02T06:45:21.124Z,4.3
2023-02-02T06:46:37.372Z,4.3
2023-02-02T06:47:53.600Z,4.3
2023-02-02T06:49:09.831Z,4.3
2023-02-02T06:50:26.086Z,4.3
2023-02-02T06:51:42.343Z,4.3
2023-02-02T06:52:57.596Z,4.3
2023-02-02T06:54:13.816Z,4.3
2023-02-02T06:55:30.063Z,4.3
2023-02-02T06:56:46.314Z,4.3
2023-02-02T06:58:02.536Z,4.3
2023-02-02T06:59:18.793Z,4.3
2023-02-02T07:00:35.029Z,4.3
2023-02-02T07:01:51.266Z,4.3
2023-02-02T07:03:07.510Z,4.3
2023-02-02T07:04:23.755Z,4.4
2023-02-02T07:05:39.987Z,4.4
2023-02-02T07:06:56.222Z,4.3
2023-02-02T07:08:12.459Z,4.3
2023-02-02T07:09:27.733Z,4.4
2023-02-02T07:10:43.969Z,4.4
2023-02-02T07:12:00.195Z,4.4
2023-02-02T07:13:16.450Z,4.3
2023-02-02T07:14:32.693Z,4.3
2023-02-02T07:15:48.927Z,4.3
2023-02-02T07:17:05.171Z,4.4
2023-02-02T07:18:21.397Z,4.3
2023-02-02T07:19:37.654Z,4.4
2023-02-02T07:20:53.904Z,4.4
2023-02-02T07:22:10.120Z,4.4
2023-02-02T07:23:26.376Z,4.4
2023-02-02T07:24:42.615Z,4.4
2023-02-02T07:25:57.873Z,4.4
2023-02-02T07:27:14.111Z,4.5
2023-02-02T07:28:30.335Z,4.5
2023-02-02T07:29:46.587Z,4.5
2023-02-02T07:31:02.827Z,4.5
2023-02-02T07:32:19.061Z,4.5
2023-02-02T07:33:35.306Z,4.5
2023-02-02T07:34:51.547Z,4.5
2023-02-02T07:36:07.793Z,4.6
2023-02-02T07:37:24.035Z,4.5
2023-02-02T07:38:40.291Z,4.5
2023-02-02T07:39:56.509Z,4.5
2023-02-02T07:41:12.747Z,4.5
2023-02-02T07:42:28.025Z,4.5
2023-02-02T07:43:44.235Z,4.5
2023-02-02T07:45:00.483Z,4.5
2023-02-02T07:46:16.720Z,4.5
2023-02-02T07:47:32.969Z,4.5
2023-02-02T07:48:49.212Z,4.5
2023-02-02T07:50:05.464Z,4.5
2023-02-02T07:51:21.709Z,4.6
2023-02-02T07:52:37.921Z,4.6
2023-02-02T07:53:54.175Z,4.6
2023-02-02T07:55:10.419Z,4.6
2023-02-02T07:56:26.650Z,4.6
2023-02-02T07:57:42.882Z,4.6
2023-02-02T07:58:58.148Z,4.7
2023-02-02T08:00:14.391Z,4.7
2023-02-02T08:01:30.624Z,4.7
2023-02-02T08:02:46.859Z,4.7
2023-02-02T08:04:03.112Z,4.7
2023-02-02T08:05:19.359Z,4.7
2023-02-02T08:06:35.601Z,4.7
2023-02-02T08:07:51.836Z,4.8
2023-02-02T08:09:08.071Z,4.8
2023-02-02T08:10:24.326Z,4.8
2023-02-02T08:11:40.555Z,4.8
2023-02-02T08:12:56.790Z,4.8
2023-02-02T08:14:13.047Z,4.8
2023-02-02T08:15:28.295Z,4.9
2023-02-02T08:16:44.522Z,4.9
2023-02-02T08:18:00.787Z,5
2023-02-02T08:19:17.017Z,5
2023-02-02T08:20:33.252Z,5
2023-02-02T08:21:49.483Z,5.1
2023-02-02T08:23:05.738Z,5.1
2023-02-02T08:24:21.976Z,5.1
2023-02-02T08:25:38.231Z,5.1
2023-02-02T08:26:54.450Z,5.1
2023-02-02T08:28:10.690Z,5.1
2023-02-02T08:29:26.956Z,5.1
2023-02-02T08:30:43.164Z,5.1
2023-02-02T08:31:58.426Z,5.1
2023-02-02T08:33:14.678Z,5.2
2023-02-02T08:34:30.903Z,5.2
2023-02-02T08:35:47.159Z,5.2
2023-02-02T08:37:03.393Z,5.2
2023-02-02T08:38:19.630Z,5.2
2023-02-02T08:39:35.880Z,5.2
2023-02-02T08:40:52.124Z,5.3
2023-02-02T08:42:08.346Z,5.3
2023-02-02T08:43:24.600Z,5.3
2023-02-02T08:44:40.845Z,5.2
2023-02-02T08:45:57.063Z,5.2
2023-02-02T08:47:13.320Z,5.3
2023-02-02T08:48:28.594Z,5.2
2023-02-02T08:49:44.815Z,5.2
2023-02-02T08:51:01.044Z,5.2
2023-02-02T08:52:17.287Z,5.1
2023-02-02T08:53:33.526Z,5.2
2023-02-02T08:54:49.788Z,5.2
2023-02-02T08:56:06.019Z,5.2
2023-02-02T08:57:22.245Z,5.2
2023-02-02T08:58:38.484Z,5.2
2023-02-02T08:59:54.742Z,5.2
2023-02-02T09:01:10.996Z,5.2
2023-02-02T09:02:27.211Z,5.2
2023-02-02T09:03:43.447Z,5.2
2023-02-02T09:04:58.720Z,5.2
2023-02-02T09:06:14.955Z,5.2
2023-02-02T09:07:31.212Z,5.2
2023-02-02T09:08:47.429Z,5.2
2023-02-02T09:10:03.686Z,5.2
2023-02-02T09:11:19.901Z,5.2
2023-02-02T09:12:36.142Z,5.2
2023-02-02T09:13:52.414Z,5.3
2023-02-02T09:15:08.643Z,5.2
2023-02-02T09:16:24.899Z,5.3
2023-02-02T09:17:41.116Z,5.2
2023-02-02T09:18:57.347Z,5.3
2023-02-02T09:20:13.616Z,5.3
2023-02-02T09:21:28.862Z,5.3
2023-02-02T09:22:45.093Z,5.3
2023-02-02T09:24:01.330Z,5.4
2023-02-02T09:25:17.583Z,5.4
2023-02-02T09:26:33.803Z,5.4
2023-02-02T09:27:50.061Z,5.5
2023-02-02T09:29:06.299Z,5.6
2023-02-02T09:30:22.552Z,5.8
2023-02-02T09:31:38.764Z,5.8
2023-02-02T09:32:55.027Z,5.8
2023-02-02T09:34:11.263Z,5.8
2023-02-02T09:35:27.488Z,5.8
2023-02-02T09:36:43.749Z,5.8
2023-02-02T09:37:58.996Z,5.8
2023-02-02T09:39:15.239Z,5.8
2023-02-02T09:40:31.461Z,5.8
2023-02-02T09:41:47.712Z,5.8
2023-02-02T09:43:03.957Z,5.8
2023-02-02T09:44:20.186Z,5.8
2023-02-02T09:45:36.438Z,5.9
2023-02-02T09:46:52.693Z,5.9
2023-02-02T09:48:08.920Z,5.9
2023-02-02T09:49:25.157Z,6
2023-02-02T09:50:41.397Z,6
2023-02-02T09:51:57.629Z,6
2023-02-02T09:53:13.874Z,6
2023-02-02T09:54:29.133Z,6
2023-02-02T09:55:45.391Z,6
2023-02-02T09:57:01.621Z,5.9
2023-02-02T09:58:17.843Z,6
2023-02-02T09:59:34.104Z,5.9
2023-02-02T10:00:50.326Z,6
2023-02-02T10:02:06.584Z,5.9
2023-02-02T10:03:22.803Z,5.9
2023-02-02T10:04:39.050Z,5.9
2023-02-02T10:05:55.282Z,5.9
2023-02-02T10:07:11.533Z,5.9
2023-02-02T10:08:27.768Z,5.8
2023-02-02T10:09:44.031Z,5.8
2023-02-02T10:10:59.278Z,5.8
2023-02-02T10:12:15.512Z,5.9
2023-02-02T10:13:31.746Z,5.9
2023-02-02T10:14:47.997Z,5.9
2023-02-02T10:16:04.245Z,5.9
2023-02-02T10:17:20.474Z,5.9
2023-02-02T10:18:35.735Z,5.9
2023-02-02T10:19:51.997Z,5.9
2023-02-02T10:21:08.207Z,5.9
2023-02-02T10:22:24.446Z,5.9
2023-02-02T10:23:40.684Z,5.9
2023-02-02T10:24:56.956Z,5.9
2023-02-02T10:26:13.180Z,6
2023-02-02T10:27:29.423Z,6
2023-02-02T10:28:45.674Z,6
2023-02-02T10:30:01.887Z,6
2023-02-02T10:31:18.153Z,6
2023-02-02T10:32:34.364Z,6
2023-02-02T10:33:50.629Z,6.1
2023-02-02T10:35:05.887Z,6.1
2023-02-02T10:36:22.140Z,6.1
2023-02-02T10:37:38.364Z,6.1
2023-02-02T10:38:54.592Z,6.1
2023-02-02T10:40:10.843Z,6.1
2023-02-02T10:41:27.077Z,6
2023-02-02T10:42:43.304Z,6
2023-02-02T10:43:59.542Z,6
2023-02-02T10:45:15.815Z,6
2023-02-02T10:46:32.024Z,6
2023-02-02T10:47:48.278Z,6
2023-02-02T10:49:04.534Z,6
2023-02-02T10:50:20.777Z,6
2023-02-02T10:51:36.010Z,6
2023-02-02T10:52:52.240Z,6
2023-02-02T10:54:08.510Z,6
2023-02-02T10:55:24.744Z,6.1
2023-02-02T10:56:40.965Z,6.1
2023-02-02T10:57:57.205Z,6.1
2023-02-02T10:59:13.452Z,6.1
2023-02-02T11:00:29.686Z,6.1
2023-02-02T11:01:45.955Z,6.1
2023-02-02T11:03:02.169Z,6
2023-02-02T11:04:18.437Z,6
2023-02-02T11:05:34.648Z,6
2023-02-02T11:06:50.904Z,6
2023-02-02T11:08:06.143Z,6
2023-02-02T11:09:22.403Z,6
2023-02-02T11:10:38.643Z,6
2023-02-02T11:11:54.866Z,5.9
2023-02-02T11:13:11.115Z,6
2023-02-02T11:14:27.360Z,6
2023-02-02T11:15:43.593Z,6
2023-02-02T11:16:59.843Z,6
2023-02-02T11:18:16.074Z,6
2023-02-02T11:19:32.336Z,6
2023-02-02T11:20:48.568Z,6
2023-02-02T11:22:04.790Z,6
2023-02-02T11:23:21.023Z,6
2023-02-02T11:24:36.299Z,6
2023-02-02T11:25:52.554Z,6.1
2023-02-02T11:27:08.759Z,6
2023-02-02T11:28:25.012Z,6
2023-02-02T11:29:41.246Z,6
2023-02-02T11:30:57.486Z,6
2023-02-02T11:32:13.724Z,6
2023-02-02T11:33:29.963Z,6
2023-02-02T11:34:46.225Z,6.1
2023-02-02T11:36:02.444Z,6
2023-02-02T11:37:18.682Z,6
2023-02-02T11:38:34.929Z,6
2023-02-02T11:39:51.172Z,6.1
2023-02-02T11:41:06.421Z,6.1
2023-02-02T11:42:22.663Z,6.1
2023-02-02T11:43:38.900Z,6.2
2023-02-02T11:44:55.149Z,6.2
2023-02-02T11:46:11.391Z,6.2
2023-02-02T11:47:27.623Z,6.2
2023-02-02T11:48:43.872Z,6.2
2023-02-02T11:50:00.124Z,6.2
2023-02-02T11:51:16.342Z,6.2
2023-02-02T11:52:32.593Z,6.2
2023-02-02T11:53:48.824Z,6.2
2023-02-02T11:55:05.062Z,6.2
2023-02-02T11:56:21.304Z,6.2
2023-02-02T11:57:36.592Z,6.2
2023-02-02T12:00:09.059Z,6.2
2023-02-02T12:01:25.299Z,6.2
2023-02-02T12:02:41.552Z,6.3
2023-02-02T12:03:57.781Z,6.2
2023-02-02T12:05:14.039Z,6.2
2023-02-02T12:06:30.265Z,6.3
2023-02-02T12:07:46.485Z,6.3
2023-02-02T12:09:02.757Z,6.3
2023-02-02T12:10:18.964Z,6.3
2023-02-02T12:11:35.210Z,6.4
2023-02-02T12:12:51.447Z,6.4
2023-02-02T12:14:06.724Z,6.5
2023-02-02T12:15:22.939Z,6.5
2023-02-02T12:16:39.180Z,6.6
2023-02-02T12:17:55.446Z,6.6
2023-02-02T12:19:11.693Z,6.6
2023-02-02T12:20:27.902Z,6.7
2023-02-02T12:21:44.175Z,6.8
2023-02-02T12:23:00.390Z,7.1
2023-02-02T12:24:16.623Z,7.7
2023-02-02T12:25:32.898Z,8.1
2023-02-02T12:26:49.130Z,8.3
2023-02-02T12:28:05.371Z,8.3
2023-02-02T12:29:21.601Z,8
2023-02-02T12:30:36.860Z,7.7
2023-02-02T12:31:53.092Z,7.7
2023-02-02T12:33:09.343Z,7.5
2023-02-02T12:34:25.571Z,7.4
2023-02-02T12:35:41.813Z,7.4
2023-02-02T12:36:58.092Z,7.7
2023-02-02T12:38:14.325Z,8.2
2023-02-02T12:39:30.578Z,8.5
2023-02-02T12:40:46.810Z,8.7
2023-02-02T12:42:03.058Z,8.8
2023-02-02T12:43:19.286Z,8.8
2023-02-02T12:44:35.522Z,8.6
2023-02-02T12:45:51.752Z,8.3
2023-02-02T12:47:07.028Z,8
2023-02-02T12:48:23.252Z,7.7
2023-02-02T12:49:39.486Z,7.4
2023-02-02T12:50:55.754Z,7.2
2023-02-02T12:52:11.978Z,6.8
2023-02-02T12:53:28.208Z,6.6
2023-02-02T12:54:44.446Z,6.4
2023-02-02T12:56:00.702Z,6.2
2023-02-02T12:57:16.921Z,6.2
2023-02-02T12:58:33.193Z,6.1
2023-02-02T12:59:49.416Z,6.1
2023-02-02T13:01:05.673Z,6.1
2023-02-02T13:02:21.898Z,6.1
2023-02-02T13:03:37.162Z,6.2
2023-02-02T13:04:53.398Z,6.2
2023-02-02T13:06:09.624Z,6.3
2023-02-02T13:07:25.897Z,6.3
2023-02-02T13:08:42.125Z,6.4
2023-02-02T13:09:58.346Z,6.4
2023-02-02T13:11:14.594Z,7.1
2023-02-02T13:12:30.824Z,7.6
2023-02-02T13:13:47.082Z,7.7
2023-02-02T13:15:03.303Z,8.1
2023-02-02T13:16:19.000Z,8
2023-02-02T13:17:35.815Z,7.7
2023-02-02T13:18:52.044Z,7.4
2023-02-02T13:20:07.310Z,7.2
2023-02-02T13:21:23.519Z,7.1
2023-02-02T13:22:39.781Z,6.9
2023-02-02T13:23:55.998Z,6.8
2023-02-02T13:25:12.259Z,6.8
2023-02-02T13:26:28.508Z,6.7
2023-02-02T13:27:44.753Z,6.7
2023-02-02T13:29:00.957Z,6.7
2023-02-02T13:30:17.220Z,6.8
2023-02-02T13:31:33.475Z,6.8
2023-02-02T13:32:49.705Z,6.8
2023-02-02T13:34:05.956Z,6.8
2023-02-02T13:35:22.159Z,6.9
2023-02-02T13:36:37.429Z,7
2023-02-02T13:37:53.687Z,7
2023-02-02T13:39:09.905Z,7.1
2023-02-02T13:40:26.170Z,7.1
2023-02-02T13:41:42.376Z,7.1
2023-02-02T13:42:58.621Z,7.1
2023-02-02T13:44:14.894Z,7.1
2023-02-02T13:45:31.130Z,7
2023-02-02T13:46:47.363Z,6.9
2023-02-02T13:48:03.601Z,6.9
2023-02-02T13:49:19.820Z,6.9
2023-02-02T13:50:36.088Z,6.9
2023-02-02T13:51:52.321Z,6.8
2023-02-02T13:53:07.578Z,6.9
2023-02-02T13:54:23.826Z,6.8
2023-02-02T13:55:40.062Z,6.8
2023-02-02T13:56:56.300Z,6.8
2023-02-02T13:58:12.515Z,6.8
2023-02-02T13:59:28.779Z,6.9
2023-02-02T14:00:45.025Z,6.8
2023-02-02T14:02:01.243Z,6.8
2023-02-02T14:03:17.507Z,6.9
2023-02-02T14:04:33.721Z,7
2023-02-02T14:05:49.962Z,7.1
2023-02-02T14:07:06.237Z,7.1
2023-02-02T14:08:22.466Z,7
2023-02-02T14:10:53.957Z,6.9
2023-02-02T14:12:10.180Z,6.8
2023-02-02T14:13:26.440Z,6.8
2023-02-02T14:14:42.663Z,6.7
2023-02-02T14:15:58.894Z,6.7
2023-02-02T14:17:15.134Z,6.6
2023-02-02T14:18:31.376Z,6.6
2023-02-02T14:19:47.651Z,6.5
2023-02-02T14:21:03.858Z,6.5
2023-02-02T14:22:20.107Z,6.5
2023-02-02T14:23:36.357Z,6.4
2023-02-02T14:24:52.582Z,6.4
2023-02-02T14:26:07.874Z,6.4
2023-02-02T14:27:24.080Z,6.3
2023-02-02T14:28:40.337Z,6.3
2023-02-02T14:29:56.573Z,6.3
2023-02-02T14:31:12.820Z,6.3
2023-02-02T14:32:29.048Z,6.3
2023-02-02T14:33:44.309Z,6.3
2023-02-02T14:35:00.559Z,6.3
2023-02-02T14:36:16.788Z,6.2
2023-02-02T14:37:33.015Z,6.3
2023-02-02T14:38:49.278Z,6.2
2023-02-02T14:40:05.507Z,6.2
2023-02-02T14:41:21.768Z,6.2
2023-02-02T14:42:37.998Z,6.2
2023-02-02T14:43:54.219Z,6.2
2023-02-02T14:45:10.480Z,6.3
2023-02-02T14:46:26.699Z,6.3
2023-02-02T14:47:42.953Z,6.3
2023-02-02T14:48:59.209Z,6.3
2023-02-02T14:50:14.434Z,6.3
2023-02-02T14:51:30.682Z,6.3
2023-02-02T14:52:46.940Z,6.3
2023-02-02T14:54:03.161Z,6.3
2023-02-02T14:55:19.398Z,6.3
2023-02-02T14:56:35.637Z,6.3
2023-02-02T14:57:51.900Z,6.2
2023-02-02T14:59:08.139Z,6.2
2023-02-02T15:00:24.358Z,6.2
2023-02-02T15:01:40.604Z,6.2
2023-02-02T15:02:56.853Z,6.2
2023-02-02T15:04:13.080Z,6.1
2023-02-02T15:05:29.339Z,6.1
2023-02-02T15:06:44.603Z,6.1
2023-02-02T15:08:00.827Z,6.1
2023-02-02T15:09:17.076Z,6.1
2023-02-02T15:10:33.312Z,6
2023-02-02T15:11:49.546Z,6.1
2023-02-02T15:13:05.805Z,6
2023-02-02T15:14:22.038Z,6.1
2023-02-02T15:15:38.282Z,6
2023-02-02T15:16:54.497Z,6
2023-02-02T15:18:10.750Z,6
2023-02-02T15:19:27.013Z,6
2023-02-02T15:20:43.239Z,6
2023-02-02T15:21:59.485Z,6
2023-02-02T15:23:14.722Z,6
2023-02-02T15:24:30.963Z,5.9
2023-02-02T15:25:47.204Z,5.9
2023-02-02T15:27:03.465Z,5.9
2023-02-02T15:28:19.704Z,5.9
2023-02-02T15:29:35.937Z,5.9
2023-02-02T15:30:52.153Z,5.9
2023-02-02T15:32:08.426Z,5.9
2023-02-02T15:33:24.648Z,5.8
2023-02-02T15:34:40.899Z,5.8
2023-02-02T15:35:57.142Z,5.9
2023-02-02T15:37:13.358Z,5.8
2023-02-02T15:38:29.634Z,5.8
2023-02-02T15:39:44.852Z,5.8
2023-02-02T15:41:01.097Z,5.8
2023-02-02T15:42:17.358Z,5.8
2023-02-02T15:43:33.615Z,5.7
2023-02-02T15:44:49.838Z,5.7
2023-02-02T15:46:06.056Z,5.6
2023-02-02T15:47:22.331Z,5.6
2023-02-02T15:48:38.571Z,5.6
2023-02-02T15:49:54.778Z,5.6
2023-02-02T15:51:11.048Z,5.6
2023-02-02T15:52:27.288Z,5.5
2023-02-02T15:53:43.496Z,5.5
2023-02-02T15:54:59.769Z,5.5
2023-02-02T15:56:15.010Z,5.5
2023-02-02T15:57:31.251Z,5.4
2023-02-02T15:58:47.474Z,5.4
2023-02-02T16:00:03.714Z,5.4
2023-02-02T16:01:19.982Z,5.4
2023-02-02T16:02:36.213Z,5.3
2023-02-02T16:03:52.439Z,5.3
2023-02-02T16:05:08.688Z,5.3
2023-02-02T16:06:24.953Z,5.3
2023-02-02T16:07:41.183Z,5.3
2023-02-02T16:08:57.419Z,5.3
2023-02-02T16:10:13.670Z,5.2
2023-02-02T16:11:29.883Z,5.2
2023-02-02T16:12:45.159Z,5.2
2023-02-02T16:14:01.401Z,5.2
2023-02-02T16:15:17.616Z,5.2
2023-02-02T16:16:33.878Z,5.1
2023-02-02T16:17:50.129Z,5.1
2023-02-02T16:19:06.350Z,5.1
2023-02-02T16:20:22.607Z,5.1
2023-02-02T16:21:38.844Z,5
2023-02-02T16:22:55.055Z,5
2023-02-02T16:24:11.301Z,5
2023-02-02T16:25:27.566Z,5
2023-02-02T16:26:43.794Z,5
2023-02-02T16:28:00.052Z,4.9
2023-02-02T16:29:15.315Z,4.9
2023-02-02T16:30:31.512Z,4.8
2023-02-02T16:31:47.753Z,4.8
2023-02-02T16:33:04.085Z,4.8
2023-02-02T16:34:20.357Z,4.8
2023-02-02T16:35:36.663Z,4.8
2023-02-02T16:36:52.936Z,4.7
2023-02-02T16:38:09.237Z,4.7
2023-02-02T16:39:25.543Z,4.7
2023-02-02T16:40:41.850Z,4.7
2023-02-02T16:41:58.139Z,4.7
2023-02-02T16:43:14.418Z,4.6
2023-02-02T16:44:30.730Z,4.6
2023-02-02T16:45:46.043Z,4.6
2023-02-02T16:47:02.306Z,4.6
2023-02-02T16:48:18.595Z,4.6
2023-02-02T16:49:34.918Z,4.6
2023-02-02T16:50:51.225Z,4.6
2023-02-02T16:52:07.513Z,4.6
2023-02-02T16:53:23.796Z,4.6
2023-02-02T16:54:40.068Z,4.6
2023-02-02T16:55:56.367Z,4.7
2023-02-02T16:58:28.993Z,4.7
2023-02-02T16:59:45.276Z,4.7
2023-02-02T17:01:01.577Z,4.7
2023-02-02T17:02:16.857Z,4.7
2023-02-02T17:03:33.145Z,4.8
2023-02-02T17:04:49.466Z,4.8
2023-02-02T17:06:05.732Z,4.8
2023-02-02T17:07:22.066Z,4.8
2023-02-02T17:08:38.349Z,4.8
2023-02-02T17:09:54.659Z,4.8
2023-02-02T17:11:10.942Z,4.8
2023-02-02T17:12:27.215Z,4.9
2023-02-02T17:13:43.509Z,4.9
2023-02-02T17:14:59.825Z,4.8
2023-02-02T17:16:16.095Z,4.8
2023-02-02T17:17:32.409Z,4.8
2023-02-02T17:18:47.717Z,4.8
2023-02-02T17:20:04.003Z,4.8
2023-02-02T17:21:20.307Z,4.8
2023-02-02T17:22:36.599Z,4.8
2023-02-02T17:23:52.901Z,4.8
2023-02-02T17:25:09.195Z,4.9
2023-02-02T17:26:25.487Z,4.8
2023-02-02T17:27:41.761Z,4.9
2023-02-02T17:28:58.050Z,4.8
2023-02-02T17:30:14.351Z,4.8
2023-02-02T17:31:30.674Z,4.8
2023-02-02T17:32:46.938Z,4.8
2023-02-02T17:34:03.240Z,4.8
2023-02-02T17:35:18.540Z,4.8
2023-02-02T17:36:34.836Z,4.7
2023-02-02T17:37:51.152Z,4.7
2023-02-02T17:39:07.425Z,4.7
2023-02-02T17:40:23.723Z,4.7
2023-02-02T17:41:40.020Z,4.7
2023-02-02T17:42:56.314Z,4.6